Terminal Aerodrome Forecast
Issued by NWS Wilmington, NC

Home | Current Version | Previous Version | Text Only | Print | Product List | Glossary On
Versions: 1 2 3 4 5 6 7 8 9 10 11 12 13 14 15 16 17 18 19 20
000
FTUS42 KILM 241100
TAFMYR
TAF
KMYR 241129Z 2412/2512 22008KT P6SM FEW015 FEW100
     FM241400 23010KT P6SM SCT030 SCT100
     FM241800 21014G22KT P6SM VCTS SCT035CB BKN080
      TEMPO 2419/2422 VRB20KT 3SM TSRA BKN020CB
     FM242200 22016KT P6SM VCSH SCT050 BKN100
     FM250200 25005KT P6SM VCSH SCT030 BKN050=

USA.gov is the U.S. government's official web portal to all federal, state and local government web resources and services.